EDT,Max TemperatureF,Mean TemperatureF,Min TemperatureF,Max Dew PointF,MeanDew PointF,Min DewpointF,Max Humidity, Mean Humidity, Min Humidity, Max Sea Level PressureIn, Mean Sea Level PressureIn, Min Sea Level PressureIn, Max VisibilityMiles, Mean VisibilityMiles, Min VisibilityMiles, Max Wind SpeedMPH, Mean Wind SpeedMPH, Max Gust SpeedMPH,PrecipitationIn, CloudCover, Events, WindDirDegrees
2013-10-1,82,77,73,65,63,61,73,64,50,30.11,30.07,30.03,10,10,10,12,7,,0.00,5,Rain,39
2013-10-2,82,74,68,68,64,62,87,70,52,30.12,30.08,30.06,10,10,10,13,6,,0.00,1,,29
2013-10-3,84,78,72,73,70,68,87,77,61,30.11,30.07,30.03,10,10,8,10,7,,0.00,5,,37
2013-10-4,88,80,73,73,72,68,91,78,53,30.11,30.07,30.03,10,10,9,13,5,,0.00,3,Fog,46
2013-10-5,86,78,73,73,72,70,91,78,61,30.09,30.05,30.01,10,10,10,14,5,,0.00,3,,34
2013-10-6,84,78,73,75,73,71,93,82,67,30.01,29.95,29.88,10,8,1,12,5,17,0.21,5,Rain,114
2013-10-7,86,80,75,73,72,69,88,81,57,29.87,29.82,29.77,10,10,6,15,8,,0.00,6,Rain,108
2013-10-8,82,74,66,74,71,64,94,90,77,30.02,29.89,29.80,10,7,1,29,14,34,0.77,8,Rain-Thunderstorm,4
2013-10-9,72,67,62,63,61,59,93,86,68,30.11,30.06,30.01,10,7,3,18,13,,0.00,6,Rain,330
2013-10-10,82,73,64,65,61,56,90,70,41,30.09,30.04,29.98,10,10,10,12,5,,0.00,0,,330
2013-10-11,84,73,64,65,60,55,90,65,38,30.06,29.99,29.95,10,10,10,9,6,,0.00,1,,271
2013-10-12,86,75,66,64,60,54,81,61,34,30.05,30.01,29.97,10,10,10,8,4,,0.00,2,,275
2013-10-13,87,76,66,68,62,57,84,67,37,30.10,30.06,30.02,10,10,10,15,5,,0.00,4,,13
2013-10-14,78,73,68,67,65,64,90,78,62,30.09,30.05,30.01,10,10,7,22,12,,0.00,6,Rain,349
2013-10-15,72,70,69,68,67,65,93,90,81,30.04,29.99,29.96,10,6,2,25,18,,0.15,8,Rain,357
2013-10-16,82,74,66,68,66,64,90,78,56,30.00,29.97,29.94,10,10,9,12,9,,0.00,5,,9
2013-10-17,86,76,69,70,68,65,93,75,51,29.99,29.95,29.90,10,10,7,12,4,,0.00,2,,107
2013-10-18,88,80,72,72,69,65,91,74,48,30.00,29.95,29.90,10,10,9,12,6,,0.00,2,,179
2013-10-19,87,80,75,75,71,70,90,78,59,29.96,29.92,29.86,10,10,7,10,7,,0.08,4,Rain,199
2013-10-20,79,74,69,71,63,58,87,70,54,30.01,29.96,29.90,10,10,10,15,10,,0.00,6,Rain,14
2013-10-21,82,77,72,72,70,67,87,81,69,30.04,29.99,29.96,10,10,9,16,8,,0.00,6,,25
2013-10-22,80,76,72,74,72,70,94,89,79,29.99,29.90,29.82,10,8,0,12,7,,0.39,7,Fog-Rain,2
2013-10-23,77,69,63,68,55,43,97,67,33,30.05,29.91,29.83,10,9,6,15,11,21,0.09,3,Rain,311
2013-10-24,70,62,55,53,44,39,78,51,37,30.19,30.13,30.06,10,10,10,24,14,28,0.00,5,,356
2013-10-25,75,64,55,52,47,43,87,58,37,30.27,30.22,30.18,10,10,10,17,8,,0.00,0,,335
2013-10-26,73,62,53,55,50,42,83,67,34,30.25,30.20,30.14,10,10,10,12,9,,0.00,1,,359
2013-10-27,75,62,52,53,48,37,89,61,27,30.18,30.14,30.10,10,10,9,9,5,,0.00,1,,336
2013-10-28,78,67,57,61,55,53,87,67,48,30.23,30.19,30.13,10,10,10,9,3,,0.00,2,,21
2013-10-29,86,70,63,64,61,57,90,74,50,30.30,30.24,30.21,10,10,7,16,8,,0.00,1,,12
2013-10-30,79,72,66,65,63,61,87,72,60,30.28,30.22,30.17,10,10,10,13,8,,0.00,4,,26
2013-10-31,84,76,70,68,66,63,93,73,51,30.17,30.08,29.99,10,10,8,13,5,,0.00,6,Fog-Rain,153